createdAt,value
2022-10-25T00:00:48.912Z,96853.41
2022-10-25T00:03:19.163Z,96837.34
2022-10-25T00:05:46.877Z,96834.66
2022-10-25T00:08:14.736Z,96835.72
2022-10-25T00:10:42.429Z,96814.88
2022-10-25T00:13:10.109Z,96815.34
2022-10-25T00:15:37.853Z,96805.78
2022-10-25T00:18:05.681Z,96801.09
2022-10-25T00:20:37.010Z,96800.66
2022-10-25T00:23:04.770Z,96798.53
2022-10-25T00:25:32.440Z,96801.34
2022-10-25T00:28:00.219Z,96810.66
2022-10-25T00:30:27.870Z,96821.16
2022-10-25T00:32:55.574Z,96811.00
2022-10-25T00:35:23.262Z,96815.22
2022-10-25T00:37:52.636Z,96816.94
2022-10-25T00:40:20.564Z,96822.06
2022-10-25T00:42:48.525Z,96803.19
2022-10-25T00:45:24.261Z,96816.28
2022-10-25T00:47:57.416Z,96824.88
2022-10-25T00:50:41.100Z,96799.75
2022-10-25T00:53:15.222Z,96833.53
2022-10-25T00:55:47.877Z,96839.06
2022-10-25T00:58:21.180Z,96847.53
2022-10-25T01:00:50.463Z,96827.00
2022-10-25T01:03:21.136Z,96831.50
2022-10-25T01:05:49.562Z,96831.97
2022-10-25T01:08:20.244Z,96814.63
2022-10-25T01:10:49.526Z,96819.28
2022-10-25T01:13:17.368Z,96840.38
2022-10-25T01:15:55.335Z,96823.03
2022-10-25T01:18:29.772Z,96810.06
2022-10-25T01:21:40.286Z,96842.69
2022-10-25T01:24:44.487Z,96838.97
2022-10-25T01:27:27.143Z,96832.44
2022-10-25T01:30:07.482Z,96831.59
2022-10-25T01:32:43.401Z,96818.53
2022-10-25T01:35:20.022Z,96811.34
2022-10-25T01:38:00.810Z,96780.72
2022-10-25T01:40:35.082Z,96793.91
2022-10-25T01:43:09.866Z,96788.19
2022-10-25T01:45:42.832Z,96804.38
2022-10-25T01:48:17.513Z,96802.38
2022-10-25T01:50:47.565Z,96806.00
2022-10-25T01:53:15.807Z,96789.34
2022-10-25T01:55:51.352Z,96802.28
2022-10-25T01:58:36.022Z,96798.91
2022-10-25T02:01:13.983Z,96802.97
2022-10-25T02:03:50.940Z,96814.75
2022-10-25T02:06:30.280Z,96785.22
2022-10-25T02:09:03.416Z,96816.16
2022-10-25T02:11:33.372Z,96791.16
2022-10-25T02:14:13.257Z,96807.81
2022-10-25T02:16:45.701Z,96804.31
2022-10-25T02:19:18.351Z,96760.69
2022-10-25T02:21:49.173Z,96808.56
2022-10-25T02:24:20.978Z,96807.03
2022-10-25T02:26:50.404Z,96811.66
2022-10-25T02:29:20.758Z,96817.75
2022-10-25T02:31:48.640Z,96818.44
2022-10-25T02:34:19.133Z,96827.25
2022-10-25T02:36:49.461Z,96826.25
2022-10-25T02:39:18.113Z,96827.00
2022-10-25T02:41:45.778Z,96810.97
2022-10-25T02:44:13.387Z,96817.59
2022-10-25T02:46:41.214Z,96820.41
2022-10-25T02:49:08.946Z,96823.72
2022-10-25T02:51:38.082Z,96820.00
2022-10-25T02:54:05.849Z,96816.38
2022-10-25T02:56:33.485Z,96819.28
2022-10-25T02:59:01.241Z,96815.28
2022-10-25T03:01:29.018Z,96807.22
2022-10-25T03:03:56.933Z,96814.66
2022-10-25T03:06:24.613Z,96809.78
2022-10-25T03:08:53.628Z,96818.84
2022-10-25T03:11:21.370Z,96816.19
2022-10-25T03:13:49.078Z,96819.28
2022-10-25T03:16:16.798Z,96819.28
2022-10-25T03:18:44.452Z,96812.31
2022-10-25T03:21:12.232Z,96808.00
2022-10-25T03:23:39.922Z,96810.72
2022-10-25T03:26:09.080Z,96808.16
2022-10-25T03:28:36.740Z,96812.59
2022-10-25T03:31:04.531Z,96815.47
2022-10-25T03:33:32.212Z,96824.19
2022-10-25T03:35:59.887Z,96819.38
2022-10-25T03:38:27.569Z,96814.13
2022-10-25T03:40:55.257Z,96813.50
2022-10-25T03:43:24.572Z,96812.22
2022-10-25T03:45:52.353Z,96829.06
2022-10-25T03:48:20.203Z,96827.28
2022-10-25T03:50:47.931Z,96831.84
2022-10-25T03:53:16.154Z,96823.66
2022-10-25T03:55:43.873Z,96820.09
2022-10-25T03:58:11.534Z,96819.34
2022-10-25T04:00:40.798Z,96807.03
2022-10-25T04:03:08.511Z,96824.41
2022-10-25T04:05:36.216Z,96828.22
2022-10-25T04:08:04.062Z,96828.34
2022-10-25T04:10:31.747Z,96842.84
2022-10-25T04:12:59.591Z,96833.78
2022-10-25T04:15:27.306Z,96833.19
2022-10-25T04:17:56.339Z,96832.13
2022-10-25T04:20:24.077Z,96829.47
2022-10-25T04:22:55.729Z,96817.16
2022-10-25T04:25:24.107Z,96814.59
2022-10-25T04:27:51.797Z,96823.00
2022-10-25T04:30:19.803Z,96825.44
2022-10-25T04:32:47.854Z,96810.13
2022-10-25T04:35:17.321Z,96823.22
2022-10-25T04:37:45.429Z,96816.84
2022-10-25T04:40:13.546Z,96821.00
2022-10-25T04:42:41.223Z,96820.09
2022-10-25T04:45:09.738Z,96824.06
2022-10-25T04:47:37.915Z,96812.25
2022-10-25T04:50:06.473Z,96790.00
2022-10-25T04:52:35.529Z,96822.28
2022-10-25T04:55:03.154Z,96827.25
2022-10-25T04:57:30.866Z,96815.47
2022-10-25T04:59:59.136Z,96831.81
2022-10-25T05:02:26.998Z,96830.41
2022-10-25T05:04:54.767Z,96827.13
2022-10-25T05:07:23.243Z,96828.09
2022-10-25T05:09:52.302Z,96827.72
2022-10-25T05:12:20.139Z,96819.91
2022-10-25T05:14:47.835Z,96817.25
2022-10-25T05:17:15.501Z,96821.09
2022-10-25T05:19:43.205Z,96815.75
2022-10-25T05:22:10.887Z,96829.28
2022-10-25T05:24:38.603Z,96820.06
2022-10-25T05:27:07.657Z,96825.72
2022-10-25T05:29:35.487Z,96831.81
2022-10-25T05:32:03.380Z,96828.09
2022-10-25T05:34:31.069Z,96834.16
2022-10-25T05:36:58.960Z,96839.06
2022-10-25T05:39:27.594Z,96833.78
2022-10-25T05:41:55.298Z,96832.25
2022-10-25T05:44:24.386Z,96832.50
2022-10-25T05:46:52.979Z,96846.31
2022-10-25T05:49:20.827Z,96846.31
2022-10-25T05:51:48.513Z,96840.13
2022-10-25T05:54:16.870Z,96834.25
2022-10-25T05:56:45.120Z,96837.78
2022-10-25T05:59:14.984Z,96837.78
2022-10-25T06:01:46.285Z,96853.00
2022-10-25T06:04:14.968Z,96821.06
2022-10-25T06:06:43.827Z,96854.75
2022-10-25T06:09:12.131Z,96853.13
2022-10-25T06:11:40.627Z,96858.19
2022-10-25T06:14:08.425Z,96822.16
2022-10-25T06:16:38.403Z,96856.38
2022-10-25T06:19:07.723Z,96857.34
2022-10-25T06:21:35.576Z,96861.13
2022-10-25T06:24:04.196Z,96865.34
2022-10-25T06:26:32.278Z,96857.81
2022-10-25T06:29:01.481Z,96860.41
2022-10-25T06:31:30.143Z,96868.03
2022-10-25T06:33:59.308Z,96872.03
2022-10-25T06:36:28.775Z,96881.03
2022-10-25T06:38:56.517Z,96876.63
2022-10-25T06:41:27.506Z,96886.81
2022-10-25T06:43:55.938Z,96883.25
2022-10-25T06:46:25.588Z,96889.53
2022-10-25T06:48:54.793Z,96875.19
2022-10-25T06:51:23.744Z,96895.88
2022-10-25T06:53:56.101Z,96889.97
2022-10-25T06:56:24.077Z,96891.00
2022-10-25T06:58:52.093Z,96891.22
2022-10-25T07:01:23.438Z,96879.69
2022-10-25T07:03:53.502Z,96889.59
2022-10-25T07:06:23.782Z,96881.75
2022-10-25T07:08:56.296Z,96885.16
2022-10-25T07:11:25.631Z,96881.91
2022-10-25T07:13:53.832Z,96865.16
2022-10-25T07:16:22.378Z,96879.75
2022-10-25T07:18:50.498Z,96886.88
2022-10-25T07:21:20.168Z,96883.81
2022-10-25T07:23:48.974Z,96890.50
2022-10-25T07:26:20.673Z,96888.63
2022-10-25T07:28:49.725Z,96884.81
2022-10-25T07:31:19.641Z,96897.59
2022-10-25T07:33:48.301Z,96870.75
2022-10-25T07:36:16.063Z,96883.81
2022-10-25T07:38:43.834Z,96888.44
2022-10-25T07:41:11.803Z,96886.34
2022-10-25T07:43:40.892Z,96873.31
2022-10-25T07:46:09.072Z,96885.66
2022-10-25T07:48:37.237Z,96886.22
2022-10-25T07:51:05.812Z,96890.41
2022-10-25T07:53:33.682Z,96901.19
2022-10-25T07:56:01.450Z,96900.75
2022-10-25T07:58:29.386Z,96903.31
2022-10-25T08:01:03.797Z,96899.22
2022-10-25T08:03:32.426Z,96902.06
2022-10-25T08:06:00.886Z,96904.97
2022-10-25T08:08:28.960Z,96898.66
2022-10-25T08:10:57.721Z,96891.53
2022-10-25T08:13:25.492Z,96864.06
2022-10-25T08:15:54.429Z,96885.06
2022-10-25T08:18:23.994Z,96875.38
2022-10-25T08:21:07.493Z,96896.41
2022-10-25T08:23:35.228Z,96890.84
2022-10-25T08:26:03.381Z,96892.72
2022-10-25T08:28:31.711Z,96888.47
2022-10-25T08:31:00.818Z,96880.44
2022-10-25T08:33:30.990Z,96875.34
2022-10-25T08:36:01.425Z,96879.44
2022-10-25T08:38:29.259Z,96865.50
2022-10-25T08:41:04.155Z,96864.97
2022-10-25T08:43:49.630Z,96867.75
2022-10-25T08:46:21.768Z,96869.84
2022-10-25T08:48:55.168Z,96861.00
2022-10-25T08:51:28.603Z,96864.31
2022-10-25T08:54:01.364Z,96868.88
2022-10-25T08:56:30.965Z,96845.22
2022-10-25T08:59:02.255Z,96852.06
2022-10-25T09:01:33.353Z,96866.22
2022-10-25T09:04:02.719Z,96862.84
2022-10-25T09:06:35.579Z,96860.44
2022-10-25T09:09:16.374Z,96853.38
2022-10-25T09:11:58.628Z,96838.63
2022-10-25T09:14:40.036Z,96855.97
2022-10-25T09:17:17.704Z,96854.19
2022-10-25T09:19:57.155Z,96851.13
2022-10-25T09:22:28.106Z,96854.91
2022-10-25T09:25:01.383Z,96851.25
2022-10-25T09:27:36.286Z,96859.44
2022-10-25T09:30:07.730Z,96860.53
2022-10-25T09:32:40.343Z,96850.97
2022-10-25T09:35:16.458Z,96853.75
2022-10-25T09:37:49.025Z,96857.69
2022-10-25T09:40:21.823Z,96854.31
2022-10-25T09:42:54.927Z,96853.22
2022-10-25T09:45:27.614Z,96853.97
2022-10-25T09:48:05.560Z,96850.06
2022-10-25T09:50:40.792Z,96852.53
2022-10-25T09:53:14.226Z,96843.53
2022-10-25T09:55:51.732Z,96855.06
2022-10-25T09:58:23.129Z,96856.06
2022-10-25T10:00:52.821Z,96857.66
2022-10-25T10:03:21.566Z,96853.47
2022-10-25T10:05:55.138Z,96858.09
2022-10-25T10:08:22.892Z,96845.13
2022-10-25T10:10:51.995Z,96866.09
2022-10-25T10:13:29.939Z,96860.41
2022-10-25T10:16:00.172Z,96850.13
2022-10-25T10:18:31.314Z,96852.94
2022-10-25T10:21:07.792Z,96845.94
2022-10-25T10:23:45.174Z,96845.63
2022-10-25T10:26:20.395Z,96849.97
2022-10-25T10:28:51.092Z,96852.13
2022-10-25T10:31:20.398Z,96853.06
2022-10-25T10:33:50.025Z,96852.59
2022-10-25T10:36:24.360Z,96842.06
2022-10-25T10:38:54.807Z,96824.53
2022-10-25T10:41:26.514Z,96831.34
2022-10-25T10:44:12.966Z,96831.41
2022-10-25T10:46:46.267Z,96832.78
2022-10-25T10:49:15.996Z,96827.41
2022-10-25T10:51:46.696Z,96826.13
2022-10-25T10:54:35.711Z,96818.81
2022-10-25T10:57:05.522Z,96818.66
2022-10-25T10:59:41.136Z,96814.47
2022-10-25T11:02:31.587Z,96816.78
2022-10-25T11:04:59.444Z,96808.09
2022-10-25T11:07:31.417Z,96814.06
2022-10-25T11:10:24.501Z,96807.00
2022-10-25T11:13:10.101Z,96801.88
2022-10-25T11:16:09.290Z,96807.91
2022-10-25T11:18:49.195Z,96803.31
2022-10-25T11:21:29.365Z,96798.47
2022-10-25T11:24:07.906Z,96793.84
2022-10-25T11:26:51.818Z,96795.91
2022-10-25T11:29:33.536Z,96798.03
2022-10-25T11:32:14.089Z,96802.44
2022-10-25T11:34:50.580Z,96800.88
2022-10-25T11:37:22.173Z,96794.09
2022-10-25T11:40:05.852Z,96793.84
2022-10-25T11:42:56.813Z,96788.41
2022-10-25T11:45:36.430Z,96783.03
2022-10-25T11:48:21.003Z,96792.41
2022-10-25T11:50:58.599Z,96782.53
2022-10-25T11:53:38.341Z,96773.28
2022-10-25T11:56:15.017Z,96775.00
2022-10-25T11:58:51.927Z,96772.53
2022-10-25T12:01:35.964Z,96776.53
2022-10-25T12:04:26.945Z,96769.00
2022-10-25T12:07:07.860Z,96770.13
2022-10-25T12:09:43.890Z,96772.13
2022-10-25T12:12:15.709Z,96756.88
2022-10-25T12:14:48.779Z,96761.63
2022-10-25T12:17:24.831Z,96754.88
2022-10-25T12:19:55.336Z,96759.59
2022-10-25T12:22:27.063Z,96747.44
2022-10-25T12:25:02.219Z,96753.66
2022-10-25T12:27:32.015Z,96756.38
2022-10-25T12:30:03.346Z,96744.97
2022-10-25T12:32:37.167Z,96747.25
2022-10-25T12:35:24.803Z,96749.63
2022-10-25T12:37:58.123Z,96740.31
2022-10-25T12:40:28.513Z,96746.41
2022-10-25T12:43:02.704Z,96736.63
2022-10-25T12:45:47.054Z,96730.72
2022-10-25T12:48:34.390Z,96731.81
2022-10-25T12:51:25.589Z,96728.56
2022-10-25T12:54:16.678Z,96734.53
2022-10-25T12:56:54.267Z,96733.38
2022-10-25T12:59:39.291Z,96724.97
2022-10-25T13:02:25.655Z,96728.69
2022-10-25T13:05:20.735Z,96718.03
2022-10-25T13:07:50.380Z,96726.94
2022-10-25T13:10:21.091Z,96721.53
2022-10-25T13:13:00.774Z,96713.56
2022-10-25T13:15:40.075Z,96717.03
2022-10-25T13:18:25.687Z,96697.22
2022-10-25T13:20:54.063Z,96701.59
2022-10-25T13:24:02.490Z,96704.75
2022-10-25T13:26:55.395Z,96700.97
2022-10-25T13:29:48.467Z,96704.03
2022-10-25T13:32:19.526Z,96694.56
2022-10-25T13:34:47.504Z,96713.91
2022-10-25T13:37:44.125Z,96710.34
2022-10-25T13:40:24.474Z,96707.13
2022-10-25T13:43:01.929Z,96692.22
2022-10-25T13:45:38.653Z,96695.63
2022-10-25T13:48:18.467Z,96681.22
2022-10-25T13:50:48.110Z,96694.00
2022-10-25T13:53:22.688Z,96688.34
2022-10-25T13:55:59.289Z,96672.59
2022-10-25T13:58:46.160Z,96687.19
2022-10-25T14:01:54.206Z,96688.22
2022-10-25T14:04:34.485Z,96688.13
2022-10-25T14:07:39.340Z,96685.94
2022-10-25T14:10:13.637Z,96684.31
2022-10-25T14:12:48.591Z,96686.22
2022-10-25T14:15:26.831Z,96680.84
2022-10-25T14:17:54.861Z,96664.84
2022-10-25T14:20:28.688Z,96673.00
2022-10-25T14:23:00.294Z,96673.53
2022-10-25T14:25:34.186Z,96665.09
2022-10-25T14:28:07.479Z,96670.78
2022-10-25T14:30:40.278Z,96660.78
2022-10-25T14:33:23.219Z,96668.69
2022-10-25T14:35:53.957Z,96654.06
2022-10-25T14:38:24.167Z,96669.28
2022-10-25T14:40:53.046Z,96663.13
2022-10-25T14:43:32.632Z,96665.50
2022-10-25T14:46:12.856Z,96665.56
2022-10-25T14:48:40.835Z,96669.31
2022-10-25T14:51:19.477Z,96670.66
2022-10-25T14:53:52.520Z,96650.91
2022-10-25T14:56:23.920Z,96665.78
2022-10-25T14:58:51.955Z,96663.94
2022-10-25T15:01:22.694Z,96666.84
2022-10-25T15:03:53.286Z,96661.44
2022-10-25T15:06:25.803Z,96650.41
2022-10-25T15:09:14.847Z,96651.44
2022-10-25T15:12:07.407Z,96657.38
2022-10-25T15:14:36.489Z,96636.19
2022-10-25T15:17:05.542Z,96657.09
2022-10-25T15:19:33.527Z,96649.22
2022-10-25T15:22:10.752Z,96639.97
2022-10-25T15:24:46.431Z,96652.91
2022-10-25T15:27:28.079Z,96655.00
2022-10-25T15:29:55.907Z,96648.50
2022-10-25T15:32:26.377Z,96647.13
2022-10-25T15:34:55.593Z,96644.44
2022-10-25T15:37:26.022Z,96651.19
2022-10-25T15:39:55.157Z,96656.56
2022-10-25T15:42:24.708Z,96659.75
2022-10-25T15:44:52.701Z,96661.31
2022-10-25T15:47:32.930Z,96654.81
2022-10-25T15:50:25.839Z,96642.84
2022-10-25T15:52:55.826Z,96650.41
2022-10-25T15:55:26.904Z,96649.03
2022-10-25T15:57:55.317Z,96650.38
2022-10-25T16:00:28.011Z,96642.44
2022-10-25T16:02:56.615Z,96644.59
2022-10-25T16:05:26.928Z,96639.66
2022-10-25T16:07:56.371Z,96631.16
2022-10-25T16:10:25.615Z,96636.53
2022-10-25T16:12:58.647Z,96631.91
2022-10-25T16:15:27.333Z,96636.66
2022-10-25T16:17:55.049Z,96635.81
2022-10-25T16:20:26.044Z,96622.91
2022-10-25T16:22:54.605Z,96624.44
2022-10-25T16:25:29.051Z,96630.03
2022-10-25T16:28:01.349Z,96627.03
2022-10-25T16:30:33.956Z,96616.94
2022-10-25T16:33:01.680Z,96636.09
2022-10-25T16:35:29.381Z,96631.16
2022-10-25T16:37:57.212Z,96633.28
2022-10-25T16:40:26.434Z,96630.75
2022-10-25T16:42:54.546Z,96629.16
2022-10-25T16:45:26.980Z,96632.06
2022-10-25T16:47:56.569Z,96638.69
2022-10-25T16:50:25.048Z,96633.81
2022-10-25T16:52:53.455Z,96629.09
2022-10-25T16:55:21.729Z,96632.69
2022-10-25T16:57:50.808Z,96630.56
2022-10-25T17:00:18.675Z,96633.47
2022-10-25T17:02:46.644Z,96627.56
2022-10-25T17:05:19.588Z,96630.69
2022-10-25T17:07:47.421Z,96617.66
2022-10-25T17:10:15.728Z,96633.84
2022-10-25T17:12:45.198Z,96626.22
2022-10-25T17:15:15.178Z,96635.84
2022-10-25T17:17:43.180Z,96634.59
2022-10-25T17:20:11.962Z,96642.91
2022-10-25T17:22:39.840Z,96652.03
2022-10-25T17:25:09.484Z,96646.91
2022-10-25T17:27:39.818Z,96649.84
2022-10-25T17:30:10.510Z,96644.13
2022-10-25T17:32:39.628Z,96651.16
2022-10-25T17:35:07.824Z,96647.88
2022-10-25T17:37:35.866Z,96638.13
2022-10-25T17:40:03.568Z,96641.38
2022-10-25T17:42:31.268Z,96630.63
2022-10-25T17:44:58.935Z,96642.81
2022-10-25T17:47:26.633Z,96633.53
2022-10-25T17:50:00.678Z,96638.50
2022-10-25T17:52:28.825Z,96635.84
2022-10-25T17:54:56.527Z,96639.06
2022-10-25T17:57:24.192Z,96640.78
2022-10-25T17:59:51.936Z,96640.84
2022-10-25T18:02:20.338Z,96624.41
2022-10-25T18:05:02.300Z,96642.53
2022-10-25T18:07:37.184Z,96635.53
2022-10-25T18:10:05.812Z,96637.75
2022-10-25T18:12:33.527Z,96633.69
2022-10-25T18:15:01.203Z,96630.72
2022-10-25T18:17:28.983Z,96624.56
2022-10-25T18:19:56.619Z,96628.63
2022-10-25T18:22:24.415Z,96627.25
2022-10-25T18:24:53.427Z,96618.34
2022-10-25T18:27:21.763Z,96620.31
2022-10-25T18:29:49.436Z,96632.19
2022-10-25T18:32:17.173Z,96609.22
2022-10-25T18:34:44.895Z,96617.28
2022-10-25T18:37:12.580Z,96612.44
2022-10-25T18:39:40.362Z,96608.84
2022-10-25T18:42:09.443Z,96608.78
2022-10-25T18:44:40.004Z,96615.13
2022-10-25T18:47:07.940Z,96582.88
2022-10-25T18:49:36.129Z,96616.44
2022-10-25T18:52:04.065Z,96617.50
2022-10-25T18:54:31.766Z,96612.25
2022-10-25T18:56:59.479Z,96616.31
2022-10-25T18:59:28.556Z,96609.16
2022-10-25T19:01:56.444Z,96603.78
2022-10-25T19:04:24.932Z,96614.03
2022-10-25T19:06:52.657Z,96621.06
2022-10-25T19:09:21.647Z,96622.91
2022-10-25T19:11:49.303Z,96610.31
2022-10-25T19:14:17.040Z,96611.94
2022-10-25T19:16:46.126Z,96602.56
2022-10-25T19:19:14.463Z,96600.22
2022-10-25T19:21:42.929Z,96577.34
2022-10-25T19:24:13.926Z,96581.66
2022-10-25T19:26:41.832Z,96587.59
2022-10-25T19:29:10.721Z,96598.59
2022-10-25T19:31:38.455Z,96590.28
2022-10-25T19:34:07.574Z,96587.34
2022-10-25T19:36:35.295Z,96580.50
2022-10-25T19:39:04.664Z,96578.41
2022-10-25T19:41:32.366Z,96581.91
2022-10-25T19:44:00.236Z,96577.59
2022-10-25T19:46:27.965Z,96572.47
2022-10-25T19:48:56.163Z,96568.91
2022-10-25T19:51:25.277Z,96566.06
2022-10-25T19:53:53.103Z,96568.16
2022-10-25T19:56:22.796Z,96570.91
2022-10-25T19:58:51.225Z,96562.22
2022-10-25T20:01:20.718Z,96569.59
2022-10-25T20:03:50.925Z,96565.63
2022-10-25T20:06:24.559Z,96563.75
2022-10-25T20:08:55.158Z,96550.03
2022-10-25T20:11:24.640Z,96551.13
2022-10-25T20:13:54.402Z,96548.72
2022-10-25T20:16:22.536Z,96543.06
2022-10-25T20:18:50.339Z,96534.47
2022-10-25T20:21:19.673Z,96540.53
2022-10-25T20:23:50.734Z,96543.22
2022-10-25T20:26:21.590Z,96529.97
2022-10-25T20:28:50.140Z,96535.59
2022-10-25T20:31:19.326Z,96538.84
2022-10-25T20:33:47.140Z,96532.03
2022-10-25T20:36:15.187Z,96521.44
2022-10-25T20:38:43.328Z,96537.69
2022-10-25T20:41:13.352Z,96534.47
2022-10-25T20:43:46.249Z,96547.66
2022-10-25T20:46:14.279Z,96551.13
2022-10-25T20:48:42.057Z,96536.53
2022-10-25T20:51:11.461Z,96552.19
2022-10-25T20:53:43.168Z,96557.00
2022-10-25T20:56:11.363Z,96561.16
2022-10-25T20:58:39.465Z,96555.44
2022-10-25T21:01:08.965Z,96557.63
2022-10-25T21:03:36.995Z,96545.56
2022-10-25T21:06:07.011Z,96557.41
2022-10-25T21:08:37.702Z,96556.94
2022-10-25T21:11:07.425Z,96572.06
2022-10-25T21:13:36.423Z,96557.56
2022-10-25T21:16:10.049Z,96554.31
2022-10-25T21:18:38.200Z,96568.31
2022-10-25T21:21:07.843Z,96543.75
2022-10-25T21:23:36.065Z,96557.16
2022-10-25T21:26:05.405Z,96553.97
2022-10-25T21:28:34.821Z,96543.84
2022-10-25T21:31:02.979Z,96556.09
2022-10-25T21:33:32.061Z,96551.78
2022-10-25T21:36:04.262Z,96551.72
2022-10-25T21:38:32.015Z,96546.97
2022-10-25T21:41:06.895Z,96538.28
2022-10-25T21:43:34.647Z,96553.81
2022-10-25T21:46:06.009Z,96541.59
2022-10-25T21:48:35.631Z,96543.06
2022-10-25T21:51:03.469Z,96542.44
2022-10-25T21:53:31.313Z,96540.91
2022-10-25T21:56:20.629Z,96550.88
2022-10-25T21:58:51.021Z,96543.28
2022-10-25T22:01:24.233Z,96543.50
2022-10-25T22:03:54.619Z,96540.31
2022-10-25T22:06:24.515Z,96534.81
2022-10-25T22:08:55.037Z,96544.22
2022-10-25T22:11:25.079Z,96552.69
2022-10-25T22:13:57.246Z,96565.06
2022-10-25T22:16:25.619Z,96555.44
2022-10-25T22:18:59.413Z,96548.38
2022-10-25T22:21:28.937Z,96552.88
2022-10-25T22:23:56.654Z,96573.28
2022-10-25T22:26:25.031Z,96556.22
2022-10-25T22:28:53.463Z,96580.09
2022-10-25T22:31:21.587Z,96590.41
2022-10-25T22:33:54.954Z,96567.81
2022-10-25T22:36:24.421Z,96576.75
2022-10-25T22:38:52.326Z,96462.69
2022-10-25T22:41:21.939Z,96561.47
2022-10-25T22:43:50.378Z,96562.94
2022-10-25T22:46:22.147Z,96571.31
2022-10-25T22:48:50.541Z,96565.06
2022-10-25T22:51:20.301Z,96554.31
2022-10-25T22:53:48.015Z,96545.75
2022-10-25T22:56:17.708Z,96562.38
2022-10-25T22:58:49.834Z,96561.72
2022-10-25T23:01:19.249Z,96533.41
2022-10-25T23:03:49.466Z,96519.19
2022-10-25T23:06:20.079Z,96526.34
2022-10-25T23:08:48.154Z,96520.34
2022-10-25T23:11:18.088Z,96526.34
2022-10-25T23:13:46.306Z,96548.34
2022-10-25T23:16:15.465Z,96544.75
2022-10-25T23:18:44.119Z,96538.63
2022-10-25T23:21:17.084Z,96531.06
2022-10-25T23:23:47.102Z,96531.06
2022-10-25T23:26:18.807Z,96552.72
2022-10-25T23:28:46.687Z,96560.53
2022-10-25T23:31:14.673Z,96576.03
2022-10-25T23:33:43.001Z,96572.88
2022-10-25T23:36:15.531Z,96548.06
2022-10-25T23:38:43.799Z,96557.09
2022-10-25T23:41:13.645Z,96561.88
2022-10-25T23:43:41.692Z,96562.53
2022-10-25T23:46:10.463Z,96527.03
2022-10-25T23:48:38.518Z,96528.34
2022-10-25T23:51:08.079Z,96543.91
2022-10-25T23:53:36.204Z,96542.38
2022-10-25T23:56:04.858Z,96544.75
2022-10-25T23:58:34.149Z,96560.28
